Blue Grass Airport Lexington US
ICAO: KLEX
IATA: LEX
Category: Large
Scheduled Services: Yes

Elevation: 979 ft
TransAlt. 18000 ft.

Airport Communications:
LEXINGTON APP/DEP:120.15
ATIS:126.3
CLNC DEL:132.35
GND:121.9
LEXINGTON TWR:119.1
UNICOM:122.95

KLEX Zoom In..

Runways:

(A) RW 04 length 7004 ft width 150 ft
ILS 110.10 / hdg 46

(B) RW 09 length 4000 ft width 75 ft
---- / hdg 87

(C) RW 22 length 7004 ft width 150 ft
ILS 111.75 / hdg 226

(D) RW 27 length 4000 ft width 75 ft
---- / hdg 267

Location; KLEX
Day. 23 / Time. 09.54 Zulu
* Altimeter: 29.83
* Temperature: 19° c. 66.2°f.
* Wind from: 340° Speed 07 kn.
Dewpoint: 18° c.
Visibility: 6 Statute Miles.
Clouds: Overcast 500 ft.
Conditions: Mist.

KLEX 230954Z 34007KT 6SM BR OVC005 19/18 A2983 RMK AO2 SLP094 T01940178 $


Wind From 340°
Speed 07 kn.

 
 
jpsmedia.com for Web Design worldairports.se 2018   terms of use